createdAt,value
2022-10-08T00:01:02.676Z,18.06
2022-10-08T00:03:31.597Z,18.06
2022-10-08T00:06:15.043Z,18.05
2022-10-08T00:08:46.494Z,18.05
2022-10-08T00:11:35.192Z,18.04
2022-10-08T00:14:02.708Z,18.05
2022-10-08T00:16:32.388Z,18.04
2022-10-08T00:19:04.767Z,18.05
2022-10-08T00:21:34.720Z,18.04
2022-10-08T00:24:02.650Z,18.05
2022-10-08T00:26:31.953Z,18.04
2022-10-08T00:29:01.809Z,18.04
2022-10-08T00:31:36.189Z,18.04
2022-10-08T00:34:05.950Z,18.02
2022-10-08T00:36:34.107Z,18.02
2022-10-08T00:39:03.119Z,18.03
2022-10-08T00:41:32.196Z,18.03
2022-10-08T00:44:03.307Z,18.02
2022-10-08T00:46:47.116Z,18.02
2022-10-08T00:49:19.768Z,18.01
2022-10-08T00:51:52.150Z,18.00
2022-10-08T00:54:20.800Z,18.00
2022-10-08T00:56:51.175Z,18.00
2022-10-08T00:59:17.806Z,18.10
2022-10-08T01:01:44.651Z,18.03
2022-10-08T01:04:12.387Z,18.00
2022-10-08T01:06:48.028Z,17.98
2022-10-08T01:09:35.702Z,17.98
2022-10-08T01:12:10.315Z,17.96
2022-10-08T01:14:55.352Z,17.98
2022-10-08T01:17:37.156Z,17.96
2022-10-08T01:20:15.347Z,17.97
2022-10-08T01:22:42.065Z,17.97
2022-10-08T01:25:33.348Z,17.96
2022-10-08T01:28:11.478Z,17.97
2022-10-08T01:30:42.112Z,17.96
2022-10-08T01:33:17.072Z,17.97
2022-10-08T01:35:45.980Z,17.98
2022-10-08T01:38:16.345Z,17.98
2022-10-08T01:40:43.659Z,18.08
2022-10-08T01:43:11.914Z,18.04
2022-10-08T01:45:48.211Z,18.00
2022-10-08T01:48:19.160Z,18.01
2022-10-08T01:50:53.579Z,18.01
2022-10-08T01:53:21.933Z,18.03
2022-10-08T01:55:51.219Z,18.03
2022-10-08T01:58:31.248Z,18.03
2022-10-08T02:01:04.019Z,18.05
2022-10-08T02:03:30.744Z,18.06
2022-10-08T02:05:58.835Z,18.06
2022-10-08T02:08:27.230Z,18.05
2022-10-08T02:10:53.924Z,18.06
2022-10-08T02:13:20.832Z,18.08
2022-10-08T02:16:17.665Z,18.10
2022-10-08T02:18:52.086Z,18.10
2022-10-08T02:21:25.126Z,18.06
2022-10-08T02:24:13.449Z,18.07
2022-10-08T02:26:48.250Z,18.08
2022-10-08T02:29:54.844Z,18.08
2022-10-08T02:32:31.818Z,18.08
2022-10-08T02:35:17.316Z,18.06
2022-10-08T02:37:47.580Z,18.05
2022-10-08T02:40:16.335Z,18.05
2022-10-08T02:42:50.672Z,18.05
2022-10-08T02:45:21.790Z,18.06
2022-10-08T02:47:51.565Z,18.08
2022-10-08T02:50:21.104Z,18.08
2022-10-08T02:52:49.117Z,18.10
2022-10-08T02:55:35.148Z,18.09
2022-10-08T02:58:05.659Z,18.10
2022-10-08T03:00:35.432Z,18.19
2022-10-08T03:03:10.704Z,18.13
2022-10-08T03:05:38.382Z,18.11
2022-10-08T03:08:06.434Z,18.07
2022-10-08T03:10:35.344Z,18.06
2022-10-08T03:13:02.830Z,18.06
2022-10-08T03:15:33.584Z,18.06
2022-10-08T03:18:03.394Z,18.06
2022-10-08T03:20:31.004Z,18.06
2022-10-08T03:23:01.753Z,18.05
2022-10-08T03:25:28.605Z,18.05
2022-10-08T03:27:55.271Z,18.06
2022-10-08T03:30:22.007Z,18.06
2022-10-08T03:32:49.127Z,18.05
2022-10-08T03:35:16.313Z,18.05
2022-10-08T03:37:42.967Z,18.04
2022-10-08T03:40:10.427Z,18.04
2022-10-08T03:42:37.042Z,18.04
2022-10-08T03:45:04.713Z,18.03
2022-10-08T03:47:31.482Z,18.03
2022-10-08T03:49:59.994Z,18.02
2022-10-08T03:52:36.323Z,18.02
2022-10-08T03:55:03.229Z,18.02
2022-10-08T03:57:29.855Z,18.01
2022-10-08T03:59:56.449Z,18.00
2022-10-08T04:02:23.237Z,18.01
2022-10-08T04:04:50.001Z,17.98
2022-10-08T04:07:16.737Z,17.99
2022-10-08T04:09:43.503Z,17.97
2022-10-08T04:12:10.202Z,17.97
2022-10-08T04:14:36.845Z,17.97
2022-10-08T04:17:03.576Z,17.96
2022-10-08T04:19:30.163Z,17.95
2022-10-08T04:21:56.876Z,17.95
2022-10-08T04:24:23.678Z,17.93
2022-10-08T04:26:50.425Z,17.93
2022-10-08T04:29:17.072Z,17.92
2022-10-08T04:31:43.849Z,17.91
2022-10-08T04:34:11.586Z,17.89
2022-10-08T04:36:39.009Z,17.89
2022-10-08T04:39:05.670Z,17.87
2022-10-08T04:41:32.355Z,17.86
2022-10-08T04:44:02.787Z,17.85
2022-10-08T04:46:29.547Z,17.93
2022-10-08T04:48:57.144Z,17.86
2022-10-08T04:51:26.381Z,17.82
2022-10-08T04:53:54.268Z,17.78
2022-10-08T04:56:24.695Z,17.76
2022-10-08T04:58:52.212Z,17.77
2022-10-08T05:01:19.988Z,17.75
2022-10-08T05:03:49.124Z,17.74
2022-10-08T05:06:17.380Z,17.73
2022-10-08T05:08:45.255Z,17.72
2022-10-08T05:11:12.018Z,17.71
2022-10-08T05:13:38.974Z,17.71
2022-10-08T05:16:11.103Z,17.69
2022-10-08T05:18:38.667Z,17.68
2022-10-08T05:21:05.780Z,17.67
2022-10-08T05:23:32.993Z,17.65
2022-10-08T05:25:59.750Z,17.65
2022-10-08T05:28:26.603Z,17.63
2022-10-08T05:30:53.347Z,17.56
2022-10-08T05:33:20.090Z,17.38
2022-10-08T05:35:46.704Z,17.21
2022-10-08T05:38:13.439Z,17.07
2022-10-08T05:40:40.129Z,16.96
2022-10-08T05:43:06.835Z,16.85
2022-10-08T05:45:33.472Z,16.73
2022-10-08T05:48:00.317Z,16.64
2022-10-08T05:50:26.935Z,16.58
2022-10-08T05:52:53.693Z,16.56
2022-10-08T05:55:20.548Z,16.52
2022-10-08T05:57:48.679Z,16.47
2022-10-08T06:00:15.852Z,16.45
2022-10-08T06:02:43.390Z,16.42
2022-10-08T06:05:10.313Z,16.36
2022-10-08T06:07:37.067Z,16.34
2022-10-08T06:10:04.410Z,16.35
2022-10-08T06:12:31.041Z,16.35
2022-10-08T06:14:57.802Z,16.37
2022-10-08T06:17:24.669Z,16.39
2022-10-08T06:19:51.357Z,16.40
2022-10-08T06:22:18.271Z,16.42
2022-10-08T06:24:45.046Z,16.44
2022-10-08T06:27:11.793Z,16.42
2022-10-08T06:29:38.543Z,16.42
2022-10-08T06:32:05.257Z,16.44
2022-10-08T06:34:32.069Z,16.43
2022-10-08T06:36:58.732Z,16.41
2022-10-08T06:39:25.480Z,16.43
2022-10-08T06:41:52.176Z,16.45
2022-10-08T06:44:19.636Z,16.46
2022-10-08T06:46:46.427Z,16.48
2022-10-08T06:49:13.243Z,16.48
2022-10-08T06:51:40.208Z,16.50
2022-10-08T06:54:08.168Z,16.57
2022-10-08T06:56:36.397Z,16.63
2022-10-08T06:59:04.502Z,16.69
2022-10-08T07:01:33.676Z,16.75
2022-10-08T07:04:01.671Z,16.82
2022-10-08T07:06:28.616Z,16.84
2022-10-08T07:08:57.505Z,16.88
2022-10-08T07:11:24.707Z,16.93
2022-10-08T07:13:51.466Z,16.97
2022-10-08T07:16:23.405Z,17.02
2022-10-08T07:18:51.990Z,17.07
2022-10-08T07:21:20.394Z,17.13
2022-10-08T07:23:47.175Z,17.21
2022-10-08T07:26:16.212Z,17.26
2022-10-08T07:28:48.883Z,17.33
2022-10-08T07:31:17.941Z,17.38
2022-10-08T07:33:44.689Z,17.44
2022-10-08T07:36:13.937Z,17.51
2022-10-08T07:38:41.449Z,17.60
2022-10-08T07:41:09.587Z,17.68
2022-10-08T07:43:37.052Z,17.77
2022-10-08T07:46:06.048Z,17.86
2022-10-08T07:48:34.088Z,17.92
2022-10-08T07:51:15.963Z,17.97
2022-10-08T07:53:43.626Z,18.02
2022-10-08T07:56:12.895Z,18.08
2022-10-08T07:58:40.345Z,18.08
2022-10-08T08:01:09.117Z,18.12
2022-10-08T08:03:36.268Z,18.10
2022-10-08T08:06:09.301Z,18.12
2022-10-08T08:08:37.476Z,18.17
2022-10-08T08:11:07.500Z,18.19
2022-10-08T08:13:37.499Z,18.27
2022-10-08T08:16:08.547Z,18.30
2022-10-08T08:18:38.187Z,18.20
2022-10-08T08:21:16.868Z,18.21
2022-10-08T08:23:46.134Z,18.21
2022-10-08T08:26:14.315Z,18.21
2022-10-08T08:28:41.382Z,18.13
2022-10-08T08:31:08.099Z,18.02
2022-10-08T08:33:35.103Z,17.70
2022-10-08T08:36:01.820Z,17.62
2022-10-08T08:38:28.689Z,17.65
2022-10-08T08:40:57.245Z,17.72
2022-10-08T08:43:25.267Z,17.73
2022-10-08T08:45:52.006Z,17.71
2022-10-08T08:48:26.856Z,17.71
2022-10-08T08:50:56.284Z,17.66
2022-10-08T08:53:23.084Z,17.78
2022-10-08T08:55:54.202Z,17.88
2022-10-08T08:58:24.013Z,17.92
2022-10-08T09:00:58.435Z,18.05
2022-10-08T09:03:30.833Z,18.18
2022-10-08T09:06:01.028Z,18.29
2022-10-08T09:08:47.927Z,18.30
2022-10-08T09:11:16.639Z,18.32
2022-10-08T09:14:15.833Z,18.41
2022-10-08T09:16:42.672Z,18.50
2022-10-08T09:19:09.391Z,18.49
2022-10-08T09:21:36.105Z,18.33
2022-10-08T09:24:03.258Z,18.25
2022-10-08T09:26:34.679Z,18.24
2022-10-08T09:29:03.353Z,18.24
2022-10-08T09:31:47.941Z,18.22
2022-10-08T09:34:17.580Z,18.20
2022-10-08T09:36:49.187Z,18.13
2022-10-08T09:39:25.417Z,18.13
2022-10-08T09:42:07.219Z,18.12
2022-10-08T09:44:41.555Z,18.22
2022-10-08T09:47:13.046Z,18.28
2022-10-08T09:49:40.051Z,18.40
2022-10-08T09:52:26.024Z,18.56
2022-10-08T09:54:57.170Z,18.70
2022-10-08T09:57:23.924Z,18.68
2022-10-08T10:00:01.652Z,18.61
2022-10-08T10:02:29.719Z,18.48
2022-10-08T10:04:58.612Z,18.44
2022-10-08T10:07:36.547Z,18.54
2022-10-08T10:10:04.964Z,18.81
2022-10-08T10:12:34.924Z,19.10
2022-10-08T10:15:05.547Z,19.38
2022-10-08T10:17:51.289Z,19.50
2022-10-08T10:20:58.625Z,19.22
2022-10-08T10:23:42.608Z,18.91
2022-10-08T10:26:15.431Z,18.86
2022-10-08T10:28:46.625Z,18.76
2022-10-08T10:31:16.315Z,18.61
2022-10-08T10:33:52.013Z,18.62
2022-10-08T10:36:20.996Z,18.68
2022-10-08T10:39:13.991Z,18.67
2022-10-08T10:41:50.558Z,18.95
2022-10-08T10:44:21.887Z,18.95
2022-10-08T10:46:53.234Z,18.82
2022-10-08T10:49:25.044Z,18.76
2022-10-08T10:52:10.199Z,18.82
2022-10-08T10:55:15.176Z,18.86
2022-10-08T10:58:06.226Z,18.98
2022-10-08T11:00:53.756Z,19.03
2022-10-08T11:03:32.163Z,19.04
2022-10-08T11:06:07.620Z,19.02
2022-10-08T11:08:42.730Z,18.93
2022-10-08T11:11:21.707Z,19.11
2022-10-08T11:14:09.611Z,19.29
2022-10-08T11:16:39.219Z,19.49
2022-10-08T11:19:13.896Z,19.61
2022-10-08T11:21:48.592Z,19.73
2022-10-08T11:24:59.896Z,19.84
2022-10-08T11:27:32.483Z,19.78
2022-10-08T11:30:15.231Z,19.67
2022-10-08T11:32:50.538Z,19.69
2022-10-08T11:35:54.708Z,19.88
2022-10-08T11:39:04.872Z,20.06
2022-10-08T11:41:40.421Z,20.35
2022-10-08T11:44:09.951Z,20.46
2022-10-08T11:46:37.078Z,20.48
2022-10-08T11:49:09.879Z,20.37
2022-10-08T11:51:57.772Z,20.30
2022-10-08T11:54:34.610Z,20.06
2022-10-08T11:57:21.602Z,19.84
2022-10-08T11:59:58.863Z,19.90
2022-10-08T12:02:41.526Z,19.88
2022-10-08T12:05:17.828Z,19.89
2022-10-08T12:07:52.319Z,20.02
2022-10-08T12:10:20.564Z,20.12
2022-10-08T12:12:49.969Z,20.02
2022-10-08T12:15:27.737Z,19.97
2022-10-08T12:17:58.797Z,19.86
2022-10-08T12:20:32.515Z,19.77
2022-10-08T12:23:06.658Z,19.70
2022-10-08T12:25:44.318Z,19.73
2022-10-08T12:28:20.333Z,19.76
2022-10-08T12:30:55.764Z,20.28
2022-10-08T12:33:23.671Z,20.80
2022-10-08T12:36:05.290Z,21.24
2022-10-08T12:38:55.428Z,21.27
2022-10-08T12:41:28.657Z,21.12
2022-10-08T12:43:58.444Z,21.05
2022-10-08T12:46:25.178Z,20.90
2022-10-08T12:48:55.483Z,20.51
2022-10-08T12:51:40.152Z,20.30
2022-10-08T12:54:17.591Z,20.09
2022-10-08T12:56:44.447Z,19.86
2022-10-08T12:59:11.554Z,19.69
2022-10-08T13:01:41.713Z,19.64
2022-10-08T13:04:19.358Z,19.60
2022-10-08T13:06:47.098Z,19.61
2022-10-08T13:09:32.539Z,19.69
2022-10-08T13:12:04.195Z,19.78
2022-10-08T13:14:36.375Z,19.76
2022-10-08T13:17:04.002Z,19.76
2022-10-08T13:19:36.058Z,19.85
2022-10-08T13:22:07.410Z,20.00
2022-10-08T13:24:44.686Z,20.20
2022-10-08T13:27:28.674Z,20.33
2022-10-08T13:29:56.660Z,20.50
2022-10-08T13:32:25.885Z,20.65
2022-10-08T13:34:55.968Z,20.67
2022-10-08T13:37:22.678Z,20.67
2022-10-08T13:40:12.422Z,20.72
2022-10-08T13:42:44.236Z,20.41
2022-10-08T13:45:19.558Z,20.19
2022-10-08T13:47:46.802Z,20.29
2022-10-08T13:50:13.918Z,20.32
2022-10-08T13:52:47.327Z,20.33
2022-10-08T13:55:21.376Z,20.44
2022-10-08T13:57:48.335Z,20.40
2022-10-08T14:00:15.718Z,20.36
2022-10-08T14:02:42.466Z,20.32
2022-10-08T14:05:09.196Z,20.29
2022-10-08T14:07:35.998Z,20.29
2022-10-08T14:10:03.845Z,20.28
2022-10-08T14:12:32.667Z,20.17
2022-10-08T14:15:00.643Z,20.17
2022-10-08T14:17:27.675Z,20.31
2022-10-08T14:19:55.579Z,20.36
2022-10-08T14:22:22.527Z,20.31
2022-10-08T14:24:49.273Z,20.10
2022-10-08T14:27:16.403Z,20.06
2022-10-08T14:29:43.082Z,20.01
2022-10-08T14:32:11.285Z,19.76
2022-10-08T14:34:37.993Z,19.65
2022-10-08T14:37:05.716Z,19.61
2022-10-08T14:39:33.675Z,19.48
2022-10-08T14:42:00.555Z,19.43
2022-10-08T14:44:27.323Z,19.58
2022-10-08T14:46:54.074Z,19.70
2022-10-08T14:49:21.268Z,19.75
2022-10-08T14:51:48.081Z,19.65
2022-10-08T14:54:14.776Z,19.60
2022-10-08T14:56:42.894Z,19.45
2022-10-08T14:59:10.801Z,19.37
2022-10-08T15:01:37.717Z,19.27
2022-10-08T15:04:05.240Z,19.15
2022-10-08T15:06:32.726Z,19.16
2022-10-08T15:08:59.686Z,19.20
2022-10-08T15:11:26.418Z,19.18
2022-10-08T15:13:53.784Z,19.31
2022-10-08T15:16:20.588Z,19.34
2022-10-08T15:18:47.591Z,19.42
2022-10-08T15:21:14.451Z,19.46
2022-10-08T15:23:41.150Z,19.43
2022-10-08T15:26:13.180Z,19.40
2022-10-08T15:28:40.213Z,19.44
2022-10-08T15:31:18.519Z,19.59
2022-10-08T15:33:47.448Z,19.77
2022-10-08T15:36:26.599Z,19.81
2022-10-08T15:38:56.485Z,19.71
2022-10-08T15:41:23.421Z,19.48
2022-10-08T15:43:50.179Z,19.38
2022-10-08T15:46:18.507Z,19.42
2022-10-08T15:48:56.255Z,19.30
2022-10-08T15:51:24.002Z,19.08
2022-10-08T15:53:51.466Z,18.85
2022-10-08T15:56:18.236Z,18.63
2022-10-08T15:58:52.186Z,18.47
2022-10-08T16:01:23.954Z,18.33
2022-10-08T16:03:53.561Z,18.20
2022-10-08T16:06:25.955Z,18.16
2022-10-08T16:08:53.347Z,18.19
2022-10-08T16:11:22.908Z,18.16
2022-10-08T16:13:59.769Z,18.14
2022-10-08T16:16:26.814Z,18.16
2022-10-08T16:18:58.727Z,18.15
2022-10-08T16:21:26.854Z,18.11
2022-10-08T16:23:53.542Z,18.04
2022-10-08T16:26:21.380Z,17.94
2022-10-08T16:28:55.239Z,17.78
2022-10-08T16:31:23.146Z,17.59
2022-10-08T16:33:54.878Z,17.38
2022-10-08T16:36:21.743Z,17.29
2022-10-08T16:38:48.398Z,17.20
2022-10-08T16:41:20.649Z,17.04
2022-10-08T16:43:51.624Z,16.89
2022-10-08T16:46:26.953Z,16.71
2022-10-08T16:49:06.851Z,16.59
2022-10-08T16:51:37.537Z,16.48
2022-10-08T16:54:06.817Z,16.36
2022-10-08T16:56:37.721Z,16.27
2022-10-08T16:59:13.366Z,16.15
2022-10-08T17:01:45.329Z,15.98
2022-10-08T17:04:12.930Z,15.90
2022-10-08T17:06:39.879Z,15.80
2022-10-08T17:09:06.951Z,15.61
2022-10-08T17:11:34.741Z,15.44
2022-10-08T17:14:02.553Z,15.41
2022-10-08T17:16:30.464Z,15.35
2022-10-08T17:18:59.253Z,15.30
2022-10-08T17:21:26.399Z,15.25
2022-10-08T17:23:53.286Z,15.18
2022-10-08T17:26:22.192Z,15.15
2022-10-08T17:28:49.711Z,15.03
2022-10-08T17:31:18.913Z,14.86
2022-10-08T17:33:45.791Z,14.80
2022-10-08T17:36:18.100Z,14.72
2022-10-08T17:38:46.537Z,14.60
2022-10-08T17:41:18.340Z,14.55
2022-10-08T17:43:46.572Z,14.53
2022-10-08T17:46:18.307Z,14.47
2022-10-08T17:48:45.596Z,14.47
2022-10-08T17:51:14.868Z,14.63
2022-10-08T17:53:42.532Z,14.82
2022-10-08T17:56:11.247Z,14.98
2022-10-08T17:58:38.647Z,15.13
2022-10-08T18:01:11.182Z,15.27
2022-10-08T18:03:38.970Z,15.37
2022-10-08T18:06:07.000Z,15.48
2022-10-08T18:08:33.995Z,15.57
2022-10-08T18:11:07.816Z,15.65
2022-10-08T18:13:35.085Z,15.73
2022-10-08T18:16:06.116Z,15.78
2022-10-08T18:18:33.338Z,15.86
2022-10-08T18:21:01.570Z,15.89
2022-10-08T18:23:30.512Z,15.95
2022-10-08T18:26:16.425Z,16.00
2022-10-08T18:28:43.557Z,16.04
2022-10-08T18:31:11.546Z,16.07
2022-10-08T18:33:39.737Z,16.09
2022-10-08T18:36:14.842Z,16.12
2022-10-08T18:38:42.730Z,16.14
2022-10-08T18:41:12.889Z,16.17
2022-10-08T18:43:39.902Z,16.19
2022-10-08T18:46:06.666Z,16.19
2022-10-08T18:48:34.991Z,16.21
2022-10-08T18:51:05.864Z,16.21
2022-10-08T18:53:37.683Z,16.22
2022-10-08T18:56:06.971Z,16.23
2022-10-08T18:58:33.835Z,16.24
2022-10-08T19:01:01.056Z,16.24
2022-10-08T19:03:27.836Z,16.24
2022-10-08T19:05:54.521Z,16.23
2022-10-08T19:08:21.343Z,16.22
2022-10-08T19:10:48.377Z,16.23
2022-10-08T19:13:15.391Z,16.23
2022-10-08T19:15:42.877Z,16.22
2022-10-08T19:18:09.684Z,16.23
2022-10-08T19:20:36.577Z,16.22
2022-10-08T19:23:03.504Z,16.21
2022-10-08T19:25:30.259Z,16.20
2022-10-08T19:27:56.965Z,16.20
2022-10-08T19:30:26.575Z,16.20
2022-10-08T19:32:55.170Z,16.18
2022-10-08T19:35:21.835Z,16.18
2022-10-08T19:37:48.622Z,16.17
2022-10-08T19:40:15.272Z,16.16
2022-10-08T19:42:41.963Z,16.15
2022-10-08T19:45:09.131Z,16.14
2022-10-08T19:47:35.970Z,16.12
2022-10-08T19:50:03.119Z,16.11
2022-10-08T19:52:29.836Z,16.11
2022-10-08T19:54:56.518Z,16.08
2022-10-08T19:57:24.234Z,16.07
2022-10-08T19:59:51.092Z,16.06
2022-10-08T20:02:17.895Z,16.05
2022-10-08T20:04:46.055Z,16.03
2022-10-08T20:07:12.854Z,16.02
2022-10-08T20:09:39.931Z,16.02
2022-10-08T20:12:06.747Z,16.01
2022-10-08T20:14:33.448Z,16.00
2022-10-08T20:17:00.141Z,15.98
2022-10-08T20:19:26.802Z,15.98
2022-10-08T20:21:55.310Z,15.95
2022-10-08T20:24:22.439Z,15.94
2022-10-08T20:26:49.522Z,15.93
2022-10-08T20:29:18.838Z,15.90
2022-10-08T20:31:51.247Z,15.89
2022-10-08T20:34:26.523Z,15.87
2022-10-08T20:36:53.724Z,15.86
2022-10-08T20:39:21.839Z,15.82
2022-10-08T20:41:49.052Z,15.82
2022-10-08T20:44:16.204Z,15.80
2022-10-08T20:46:43.295Z,15.79
2022-10-08T20:49:12.376Z,15.75
2022-10-08T20:51:40.266Z,15.74
2022-10-08T20:54:08.580Z,15.75
2022-10-08T20:56:39.779Z,15.71
2022-10-08T20:59:08.717Z,15.69
2022-10-08T21:01:38.490Z,15.66
2022-10-08T21:04:06.660Z,15.64
2022-10-08T21:06:39.437Z,15.61
2022-10-08T21:09:07.349Z,15.59
2022-10-08T21:11:34.467Z,15.56
2022-10-08T21:14:01.764Z,15.56
2022-10-08T21:16:31.763Z,15.53
2022-10-08T21:19:01.582Z,15.51
2022-10-08T21:21:29.524Z,15.51
2022-10-08T21:23:56.688Z,15.48
2022-10-08T21:26:31.443Z,15.43
2022-10-08T21:29:00.122Z,15.43
2022-10-08T21:31:28.215Z,15.41
2022-10-08T21:33:55.442Z,15.38
2022-10-08T21:36:31.634Z,15.36
2022-10-08T21:38:59.315Z,15.34
2022-10-08T21:41:29.832Z,15.31
2022-10-08T21:43:56.914Z,15.38
2022-10-08T21:46:25.803Z,15.30
2022-10-08T21:48:57.795Z,15.23
2022-10-08T21:51:25.063Z,15.21
2022-10-08T21:53:55.864Z,15.16
2022-10-08T21:56:24.625Z,15.14
2022-10-08T21:58:56.111Z,15.11
2022-10-08T22:01:36.933Z,15.08
2022-10-08T22:04:08.893Z,15.04
2022-10-08T22:06:38.467Z,15.03
2022-10-08T22:09:06.359Z,15.01
2022-10-08T22:11:33.194Z,15.00
2022-10-08T22:13:59.833Z,14.97
2022-10-08T22:16:26.640Z,14.96
2022-10-08T22:18:53.376Z,14.94
2022-10-08T22:21:22.408Z,14.90
2022-10-08T22:23:50.343Z,14.87
2022-10-08T22:26:18.950Z,14.85
2022-10-08T22:28:45.886Z,14.84
2022-10-08T22:31:14.495Z,14.82
2022-10-08T22:33:41.330Z,14.81
2022-10-08T22:36:10.378Z,14.78
2022-10-08T22:38:38.645Z,14.76
2022-10-08T22:41:11.143Z,14.73
2022-10-08T22:43:39.375Z,14.71
2022-10-08T22:46:08.266Z,14.68
2022-10-08T22:48:35.675Z,14.67
2022-10-08T22:51:03.527Z,14.65
2022-10-08T22:53:30.782Z,14.64
2022-10-08T22:55:57.874Z,14.63
2022-10-08T22:58:25.024Z,14.60
2022-10-08T23:01:02.216Z,14.57
2022-10-08T23:03:29.128Z,14.58
2022-10-08T23:06:01.872Z,14.57
2022-10-08T23:08:35.721Z,14.55
2022-10-08T23:11:04.339Z,14.53
2022-10-08T23:13:31.599Z,14.52
2022-10-08T23:16:04.220Z,14.50
2022-10-08T23:18:32.670Z,14.50
2022-10-08T23:21:13.278Z,14.49
2022-10-08T23:23:40.033Z,14.57
2022-10-08T23:26:07.405Z,14.50
2022-10-08T23:28:35.424Z,14.46
2022-10-08T23:31:12.899Z,14.43
2022-10-08T23:33:42.875Z,14.42
2022-10-08T23:36:11.120Z,14.41
2022-10-08T23:38:38.140Z,14.40
2022-10-08T23:41:06.655Z,14.38
2022-10-08T23:43:47.335Z,14.38
2022-10-08T23:46:14.915Z,14.46
2022-10-08T23:48:42.130Z,14.39
2022-10-08T23:51:10.075Z,14.35
2022-10-08T23:53:37.412Z,14.33
2022-10-08T23:56:04.980Z,14.32
2022-10-08T23:58:31.862Z,14.31
